首页
METAR-TAF:

METAR-TAF

机场 :

雅典, 喬治亞, 美国

纬度: 33-57-03N, 经度: 083-19-41W, 海拔: 246米

当前天气观测

该预报发布于39分钟前的16:07 UTC
静风
温度 27°C
湿度 70%
气压 1021 hPa
能見度: 16.1公里
少量云层高于2100英尺
多云层高于3800英尺

METAR: KAHN 201607Z 00000KT 10SM FEW021 BKN038 27/21 A3015 RMK AO2 T02720211

时间: 12:46 (16:46 UTC)

预报

该预报发布于5小时和9分钟前的11:37 UTC
预报有效从20日的 12点(UTC)到 21日的 12点(UTC)
风速3节,风向多变
能見度: 9.7公里
散云层高于800英尺
多云层高于2000英尺
轻雾
从 20日的 1300点(UTC)
风速节,风向
能見度: 10公里
多云层高于1000英尺
从 20日的 1500点(UTC)
风速3节,风向多变
能見度: 10公里
多云层高于2000英尺
从 20日的 1800点(UTC)
风速5节,风向南转南东
能見度: 10公里
多云层高于3500英尺
附近有阵雨
短暂存在
从 20日的 20点(UTC)到 20日的 24点(UTC)
风速15节,风向多变,有时为25节阵风
能見度: 6.4公里
阴天层高于2500英尺, 积雨云.
雷暴, 雨
从 21日的 0300点(UTC)
风速3节,风向南转西南
能見度: 10公里
散云层高于20000英尺
从 21日的 0900点(UTC)
风速3节,风向西南
能見度: 8.0公里
多云层高于15000英尺
轻雾

TAF: KAHN 201137Z 2012/2112 VRB03KT 6SM BR SCT008 BKN020 FM201300 00000KT P6SM BKN010 FM201500 VRB03KT P6SM BKN020 FM201800 15005KT P6SM VCSH BKN035 TEMPO 2020/2024 VRB15G25KT 4SM TSRA OVC025CB FM210300 21003KT P6SM SCT200 FM210900 22003KT 5SM BR BKN150

超过4000个机场的气象观测和天气预报(METAR&TAF报告)。

可查询的气象台以黄色和红色小点在地图上表示。

将鼠标移到小点上方,可查看气象台名称。

然后点击查看天气观测和预报。

如需切换地图:点击带黑十字的绿色按钮放大地图;点击带横线的绿色按钮缩小地图;或者点击绿色箭头查看邻近地区的地图。


METAR-TAF: